KALM/ALM METAR and TAF weather

Enter ICAO airport designator
Station Type Date Time Source
KALM METAR 2022/12/05 14:55 UTC NOAA

KALM 051455Z AUTO 15007KT 10SM BKN055 11/10 A3006 RMK AO2


Station Type Date Time Source
KALM Decoded METAR 2022/12/05 14:55 UTC NOAA

Alamogordo-White, NM, United States (KALM) 32-50N 105-59W
Dec 05, 2022 - 09:55 AM EST / 2022.12.05 1455 UTC
Wind: from the SSE (150 degrees) at 8 MPH (7 KT):0
Visibility: 10 mile(s):0
Sky conditions: mostly cloudy
Temperature: 51 F (11 C)
Dew Point: 50 F (10 C)
Relative Humidity: 93%
Pressure (altimeter): 30.06 in. Hg (1017 hPa)
ob: KALM 051455Z AUTO 15007KT 10SM BKN055 11/10 A3006 RMK AO2
cycle: 15

Station Type Date Time Source
KALM TAF UTC NOAA

Error!

Example: see airport list